Time;durP1;ratioP1;P1;durP2;ratioP2;P2;SDS_P1;SDS_P2;PMS_P1;PMS_P2;Temp;Humidity;BMP_temperature;BMP_pressure;BME280_temperature;BME280_humidity;BME280_pressure;Samples;Min_cycle;Max_cycle;Signal;HPM_P1;HPM_P2
2022/02/21 00:00:42;;;;;;;7.35;0.50;;;5.60;99.90;;;;;;5028425;28;20029;-79
2022/02/21 00:03:07;;;;;;;9.85;0.77;;;5.70;99.90;;;;;;5030318;28;20041;-78
2022/02/21 00:05:34;;;;;;;9.02;0.47;;;5.90;99.90;;;;;;5028998;28;20082;-80
2022/02/21 00:08:00;;;;;;;11.63;0.63;;;6.00;99.90;;;;;;5031200;28;20036;-79
2022/02/21 00:10:26;;;;;;;17.75;1.23;;;6.00;99.90;;;;;;5009456;28;20018;-79
2022/02/21 00:12:52;;;;;;;15.68;1.13;;;6.10;99.90;;;;;;5031785;28;20032;-78
2022/02/21 00:15:23;;;;;;;12.43;0.70;;;6.10;99.90;;;;;;5032168;28;20093;-78
2022/02/21 00:17:50;;;;;;;17.48;1.45;;;6.20;99.90;;;;;;5031915;28;20048;-80
2022/02/21 00:20:16;;;;;;;14.02;0.98;;;6.20;99.90;;;;;;5032010;28;20116;-79
2022/02/21 00:22:41;;;;;;;17.77;1.25;;;6.20;99.90;;;;;;5029403;28;20100;-79
2022/02/21 00:25:08;;;;;;;10.40;0.95;;;6.10;99.90;;;;;;5036873;28;20025;-80
2022/02/21 00:27:33;;;;;;;12.15;0.90;;;6.10;99.90;;;;;;5028183;28;20120;-80
2022/02/21 00:29:59;;;;;;;9.15;1.25;;;6.10;99.90;;;;;;5031101;28;20377;-80
2022/02/21 00:32:25;;;;;;;6.72;0.88;;;6.00;99.90;;;;;;5024390;28;20412;-80
2022/02/21 00:34:50;;;;;;;23.90;1.48;;;6.00;99.90;;;;;;5023682;28;20052;-80
2022/02/21 00:37:15;;;;;;;11.18;1.08;;;6.10;99.90;;;;;;5028520;28;20094;-81
2022/02/21 00:39:41;;;;;;;16.33;1.90;;;6.00;99.90;;;;;;5030700;28;20030;-80
2022/02/21 00:42:07;;;;;;;11.32;0.85;;;6.10;99.90;;;;;;5031663;28;20031;-80
2022/02/21 00:44:33;;;;;;;18.42;1.42;;;6.10;99.90;;;;;;5031077;28;20029;-81
2022/02/21 00:47:00;;;;;;;16.42;1.08;;;6.10;99.90;;;;;;5030296;28;20025;-80
2022/02/21 00:49:26;;;;;;;9.25;0.90;;;6.20;99.90;;;;;;5031438;28;20044;-81
2022/02/21 00:51:51;;;;;;;13.70;0.73;;;6.20;99.90;;;;;;5030008;28;20108;-82
2022/02/21 00:54:17;;;;;;;10.60;0.90;;;6.30;99.90;;;;;;5025358;28;20413;-80
2022/02/21 00:56:43;;;;;;;5.60;0.40;;;6.20;99.90;;;;;;5031741;28;20041;-80
2022/02/21 00:59:08;;;;;;;12.57;1.30;;;6.20;99.90;;;;;;5031193;28;20375;-79
2022/02/21 01:01:34;;;;;;;12.07;1.05;;;6.20;99.90;;;;;;5032878;28;20057;-81
2022/02/21 01:03:59;;;;;;;9.55;1.10;;;6.30;99.90;;;;;;5013600;28;20478;-80
2022/02/21 01:06:25;;;;;;;12.85;1.25;;;6.20;99.90;;;;;;5033178;28;20026;-81
2022/02/21 01:08:50;;;;;;;13.02;0.77;;;6.20;99.90;;;;;;5027130;28;20048;-80
2022/02/21 01:11:16;;;;;;;9.27;0.65;;;6.20;99.90;;;;;;5030859;28;20030;-80
2022/02/21 01:13:42;;;;;;;13.70;0.75;;;6.30;99.90;;;;;;5030902;28;20029;-80
2022/02/21 01:16:07;;;;;;;11.38;0.57;;;6.30;99.90;;;;;;5024965;28;20164;-80
2022/02/21 01:18:33;;;;;;;13.02;1.63;;;6.30;99.90;;;;;;5012892;28;20571;-80
2022/02/21 01:21:00;;;;;;;16.85;0.93;;;6.20;99.90;;;;;;5031370;28;20049;-80
2022/02/21 01:23:26;;;;;;;10.82;0.65;;;6.20;99.90;;;;;;5033993;28;20037;-81
2022/02/21 01:25:51;;;;;;;9.00;0.85;;;6.20;99.90;;;;;;5030626;28;20510;-80
2022/02/21 01:28:17;;;;;;;8.48;0.55;;;6.10;99.90;;;;;;5027225;28;20758;-76
2022/02/21 01:30:42;;;;;;;11.98;1.00;;;5.90;99.90;;;;;;5025831;28;20389;-77
2022/02/21 01:33:08;;;;;;;12.70;1.40;;;5.00;99.90;;;;;;5029165;28;20386;-77
2022/02/21 01:35:33;;;;;;;17.05;1.20;;;4.60;99.90;;;;;;5028397;28;20021;-76
2022/02/21 01:37:59;;;;;;;15.95;0.93;;;4.30;99.90;;;;;;5027711;28;20033;-76
2022/02/21 01:40:24;;;;;;;15.45;1.83;;;4.30;99.90;;;;;;5026432;28;20030;-76
2022/02/21 01:42:50;;;;;;;18.23;1.55;;;4.40;99.90;;;;;;5028213;28;20112;-77
2022/02/21 01:45:15;;;;;;;11.68;1.05;;;4.50;99.90;;;;;;5028447;28;20112;-76
2022/02/21 01:47:41;;;;;;;20.42;1.90;;;4.60;99.90;;;;;;5029445;28;20040;-77
2022/02/21 01:50:07;;;;;;;13.68;1.92;;;4.70;99.90;;;;;;5029427;28;20113;-77
2022/02/21 01:52:33;;;;;;;13.20;0.75;;;4.70;99.90;;;;;;5007855;28;20029;-78
2022/02/21 01:54:58;;;;;;;15.52;1.10;;;4.80;99.90;;;;;;5026995;28;20072;-78
2022/02/21 01:57:26;;;;;;;9.63;0.68;;;5.00;99.90;;;;;;5022541;28;20069;-78
2022/02/21 01:59:52;;;;;;;10.23;0.70;;;5.00;99.90;;;;;;5028579;28;20036;-77
2022/02/21 02:02:17;;;;;;;16.98;1.88;;;5.10;99.90;;;;;;5029058;28;20029;-78
2022/02/21 02:04:43;;;;;;;9.88;1.30;;;5.10;99.90;;;;;;5027003;28;20131;-78
2022/02/21 02:07:11;;;;;;;14.05;1.10;;;5.20;99.90;;;;;;5026916;28;20033;-79
2022/02/21 02:09:37;;;;;;;11.10;1.08;;;5.20;99.90;;;;;;5025642;28;20022;-78
2022/02/21 02:12:06;;;;;;;11.10;1.20;;;5.20;99.90;;;;;;5032681;28;20029;-80
2022/02/21 02:14:39;;;;;;;12.93;0.73;;;5.20;99.90;;;;;;5030202;28;20014;-80
2022/02/21 02:17:10;;;;;;;13.90;1.27;;;5.20;99.90;;;;;;5032843;28;20436;-81
2022/02/21 02:19:37;;;;;;;19.00;1.10;;;5.20;99.90;;;;;;5032595;28;20125;-80
2022/02/21 02:22:11;;;;;;;6.70;0.55;;;5.20;99.90;;;;;;5031869;28;20084;-80
2022/02/21 02:24:37;;;;;;;8.90;0.70;;;5.20;99.90;;;;;;5033761;28;20041;-80
2022/02/21 02:27:03;;;;;;;15.30;1.33;;;5.20;99.90;;;;;;5033253;28;20025;-82
2022/02/21 02:29:29;;;;;;;12.77;0.88;;;5.20;99.90;;;;;;5033646;28;20078;-81
2022/02/21 02:31:55;;;;;;;10.80;0.70;;;5.30;99.90;;;;;;5030014;28;20067;-81
2022/02/21 02:34:21;;;;;;;15.32;1.20;;;5.40;99.90;;;;;;5033586;28;20477;-81
2022/02/21 02:36:48;;;;;;;8.70;1.55;;;5.40;99.90;;;;;;5033417;28;20077;-80
2022/02/21 02:39:17;;;;;;;15.18;1.20;;;5.40;99.90;;;;;;5034564;28;20431;-80
2022/02/21 02:41:44;;;;;;;6.25;0.70;;;5.40;99.90;;;;;;5027712;28;20037;-80
2022/02/21 02:44:09;;;;;;;11.23;1.20;;;5.40;99.90;;;;;;5034133;28;20032;-80
2022/02/21 02:46:35;;;;;;;11.75;1.05;;;5.40;99.90;;;;;;5029472;28;20381;-80
2022/02/21 02:49:00;;;;;;;12.75;0.77;;;5.40;99.90;;;;;;5032695;28;20033;-81
2022/02/21 02:51:26;;;;;;;13.93;1.25;;;5.40;99.90;;;;;;5030529;28;20022;-80
2022/02/21 02:53:53;;;;;;;11.57;0.73;;;5.40;99.90;;;;;;5030959;28;20036;-81
2022/02/21 02:56:19;;;;;;;13.02;0.85;;;5.30;99.90;;;;;;5034167;28;20097;-81
2022/02/21 02:58:44;;;;;;;9.00;1.00;;;5.30;99.90;;;;;;5028107;28;20069;-80
2022/02/21 03:01:10;;;;;;;17.10;1.75;;;5.30;99.90;;;;;;5033254;28;20485;-81
2022/02/21 03:03:35;;;;;;;15.68;1.40;;;5.30;99.90;;;;;;5026179;28;20021;-81
2022/02/21 03:06:01;;;;;;;13.85;1.88;;;5.30;99.90;;;;;;5028624;28;20026;-80
2022/02/21 03:08:26;;;;;;;7.43;0.68;;;5.40;99.90;;;;;;5033444;28;20357;-80
2022/02/21 03:10:52;;;;;;;10.43;0.70;;;5.40;99.90;;;;;;5033946;28;20091;-82
2022/02/21 03:13:18;;;;;;;10.85;1.05;;;5.40;99.90;;;;;;5031992;28;20532;-79
2022/02/21 03:15:43;;;;;;;10.60;1.10;;;5.20;99.90;;;;;;5032226;28;20036;-79
2022/02/21 03:18:09;;;;;;;13.93;1.10;;;4.80;99.90;;;;;;5030336;28;20045;-77
2022/02/21 03:20:35;;;;;;;8.82;1.33;;;4.60;99.90;;;;;;5032215;28;20382;-77
2022/02/21 03:23:01;;;;;;;10.73;0.60;;;4.50;99.90;;;;;;5033529;28;20540;-78
2022/02/21 03:25:27;;;;;;;10.52;1.00;;;4.30;99.90;;;;;;5030452;28;20512;-79
2022/02/21 03:27:52;;;;;;;10.32;1.08;;;4.20;99.90;;;;;;5031332;28;20026;-78
2022/02/21 03:30:18;;;;;;;15.15;1.38;;;4.00;99.90;;;;;;5030925;28;20385;-79
2022/02/21 03:32:44;;;;;;;14.95;1.13;;;3.80;99.90;;;;;;5030812;28;20045;-78
2022/02/21 03:35:10;;;;;;;9.95;1.05;;;3.80;99.90;;;;;;5032910;28;20014;-80
2022/02/21 03:37:36;;;;;;;8.35;1.05;;;3.80;99.90;;;;;;5030324;28;20504;-80
2022/02/21 03:40:06;;;;;;;16.17;2.63;;;4.00;99.90;;;;;;5030445;28;20037;-78
2022/02/21 03:42:32;;;;;;;13.05;0.93;;;3.80;99.90;;;;;;5028682;28;20130;-79
2022/02/21 03:44:58;;;;;;;8.65;0.60;;;3.60;99.90;;;;;;5031017;28;20082;-79
2022/02/21 03:47:24;;;;;;;11.93;1.25;;;3.50;99.90;;;;;;5010956;28;20101;-78
2022/02/21 03:49:49;;;;;;;13.75;0.98;;;3.50;99.90;;;;;;5029137;28;20157;-79
2022/02/21 03:52:15;;;;;;;14.70;0.90;;;3.60;99.90;;;;;;5026627;28;20041;-79
2022/02/21 03:54:40;;;;;;;10.50;0.98;;;3.70;99.90;;;;;;5030174;28;20551;-79
2022/02/21 03:57:06;;;;;;;16.02;1.13;;;3.90;99.90;;;;;;5031823;28;20063;-79
2022/02/21 03:59:31;;;;;;;9.10;1.00;;;4.00;99.90;;;;;;5029456;28;20097;-80
2022/02/21 04:01:57;;;;;;;13.80;2.08;;;3.80;99.90;;;;;;5031008;28;20048;-78
2022/02/21 04:04:22;;;;;;;10.88;0.73;;;3.60;99.90;;;;;;5029994;28;20064;-80
2022/02/21 04:06:48;;;;;;;14.80;1.30;;;3.50;99.90;;;;;;5029607;28;20025;-80
2022/02/21 04:09:13;;;;;;;16.85;0.60;;;3.60;99.90;;;;;;5030182;28;20029;-80
2022/02/21 04:11:39;;;;;;;14.80;1.52;;;3.70;99.90;;;;;;5027901;28;20025;-80
2022/02/21 04:14:05;;;;;;;15.50;1.73;;;3.70;99.90;;;;;;5031448;28;20032;-79
2022/02/21 04:16:34;;;;;;;13.98;1.00;;;3.90;99.90;;;;;;5009423;28;20104;-79
2022/02/21 04:19:03;;;;;;;16.05;1.67;;;4.00;99.90;;;;;;5030779;28;20040;-81
2022/02/21 04:21:29;;;;;;;13.15;1.35;;;4.00;99.90;;;;;;5028341;28;20486;-80
2022/02/21 04:23:55;;;;;;;14.23;0.93;;;4.20;99.90;;;;;;5032626;28;20038;-80
2022/02/21 04:26:21;;;;;;;12.43;1.27;;;4.30;99.90;;;;;;5030316;28;20036;-79
2022/02/21 04:28:46;;;;;;;13.68;0.98;;;4.50;99.90;;;;;;5029447;28;20060;-80
2022/02/21 04:31:14;;;;;;;13.73;0.93;;;4.50;99.90;;;;;;5031553;28;20539;-81
2022/02/21 04:33:40;;;;;;;9.23;0.95;;;4.40;99.90;;;;;;5029292;28;20041;-81
2022/02/21 04:36:06;;;;;;;15.57;1.00;;;4.50;99.90;;;;;;5030228;28;20101;-81
2022/02/21 04:38:31;;;;;;;11.07;1.20;;;4.40;99.90;;;;;;5031150;28;20116;-82
2022/02/21 04:40:57;;;;;;;11.30;1.30;;;4.50;99.90;;;;;;5030667;28;20112;-81
2022/02/21 04:43:23;;;;;;;12.95;0.77;;;4.50;99.90;;;;;;5031666;28;20065;-82
2022/02/21 04:45:54;;;;;;;7.75;0.65;;;4.60;99.90;;;;;;5030110;28;20158;-82
2022/02/21 04:48:21;;;;;;;4.78;0.50;;;4.60;99.90;;;;;;5031602;28;20033;-82
2022/02/21 04:50:46;;;;;;;8.15;0.63;;;4.50;99.90;;;;;;5030467;28;20561;-80
2022/02/21 04:53:12;;;;;;;9.52;0.70;;;4.40;99.90;;;;;;5031784;28;20101;-81
2022/02/21 04:55:37;;;;;;;14.32;2.20;;;4.20;99.90;;;;;;5029946;28;20034;-81
2022/02/21 04:58:03;;;;;;;9.23;0.75;;;4.10;99.90;;;;;;5030607;28;20436;-81
2022/02/21 05:00:28;;;;;;;7.63;0.70;;;4.00;99.90;;;;;;5027995;28;20029;-82
2022/02/21 05:02:54;;;;;;;10.95;1.17;;;4.00;99.90;;;;;;5012819;28;20030;-80
2022/02/21 05:05:19;;;;;;;10.82;0.70;;;4.00;99.90;;;;;;5031346;28;20021;-81
2022/02/21 05:07:46;;;;;;;21.27;1.67;;;4.00;99.90;;;;;;5012760;28;20029;-81
2022/02/21 05:10:12;;;;;;;10.93;0.88;;;4.10;99.90;;;;;;5010635;28;20117;-80
2022/02/21 05:12:38;;;;;;;11.82;0.73;;;4.20;99.90;;;;;;5030895;28;20033;-82
2022/02/21 05:15:05;;;;;;;15.52;1.33;;;4.20;99.90;;;;;;5031026;28;20037;-81
2022/02/21 05:17:30;;;;;;;10.73;1.15;;;4.30;99.90;;;;;;5029784;28;20729;-81
2022/02/21 05:19:56;;;;;;;10.60;0.77;;;4.30;99.90;;;;;;5022535;28;20079;-80
2022/02/21 05:22:22;;;;;;;14.73;1.13;;;4.30;99.90;;;;;;5030187;28;20029;-82
2022/02/21 05:24:48;;;;;;;15.02;1.23;;;4.30;99.90;;;;;;5031145;28;20029;-82
2022/02/21 05:27:14;;;;;;;11.70;1.23;;;4.40;99.90;;;;;;5030529;28;20021;-83
2022/02/21 05:29:39;;;;;;;12.20;0.63;;;4.50;99.90;;;;;;5030824;28;20026;-82
2022/02/21 05:32:05;;;;;;;10.23;0.88;;;4.60;99.90;;;;;;5028193;28;20413;-83
2022/02/21 05:34:31;;;;;;;11.40;1.02;;;4.60;99.90;;;;;;5024682;28;20417;-82
2022/02/21 05:36:56;;;;;;;8.63;0.95;;;4.60;99.90;;;;;;5029089;28;20037;-81
2022/02/21 05:39:22;;;;;;;12.48;1.17;;;4.70;99.90;;;;;;5023883;28;20022;-82
2022/02/21 05:41:47;;;;;;;12.38;1.10;;;4.70;99.90;;;;;;5029417;28;20040;-81
2022/02/21 05:44:13;;;;;;;20.90;1.38;;;4.60;99.90;;;;;;5010929;28;20104;-80
2022/02/21 05:46:38;;;;;;;15.45;1.00;;;4.60;99.90;;;;;;5028492;28;20040;-81
2022/02/21 05:49:04;;;;;;;16.20;0.70;;;4.60;99.90;;;;;;5022178;28;20037;-78
2022/02/21 05:51:30;;;;;;;14.35;1.05;;;4.60;99.90;;;;;;5025685;28;20033;-81
2022/02/21 05:53:56;;;;;;;12.70;1.58;;;4.60;99.90;;;;;;5009636;28;20017;-81
2022/02/21 05:56:21;;;;;;;15.63;1.10;;;4.50;99.90;;;;;;5026060;28;20045;-81
2022/02/21 05:58:47;;;;;;;17.92;2.03;;;4.50;99.90;;;;;;5029593;28;20422;-79
2022/02/21 06:01:13;;;;;;;16.30;1.23;;;4.50;99.90;;;;;;5030138;28;20022;-78
2022/02/21 06:03:38;;;;;;;16.98;1.30;;;4.40;99.90;;;;;;5030280;28;20087;-82
2022/02/21 06:06:04;;;;;;;13.05;1.08;;;4.50;99.90;;;;;;5029587;28;20803;-80
2022/02/21 06:08:30;;;;;;;10.65;0.85;;;4.50;99.90;;;;;;5028440;28;20056;-79
2022/02/21 06:10:59;;;;;;;13.13;1.38;;;4.50;99.90;;;;;;5026016;28;20056;-79
2022/02/21 06:13:24;;;;;;;13.05;0.88;;;4.60;99.90;;;;;;5024464;28;20025;-80
2022/02/21 06:15:50;;;;;;;14.25;1.25;;;4.60;99.90;;;;;;5028634;28;20043;-80
2022/02/21 06:18:15;;;;;;;18.95;1.40;;;4.60;99.90;;;;;;5030343;28;20508;-81
2022/02/21 06:20:41;;;;;;;13.27;1.63;;;4.60;99.90;;;;;;5029488;28;20107;-81
2022/02/21 06:23:06;;;;;;;12.13;1.00;;;4.60;99.90;;;;;;5029805;28;20069;-81
2022/02/21 06:25:32;;;;;;;15.63;1.02;;;4.70;99.90;;;;;;5026399;28;20036;-81
2022/02/21 06:27:57;;;;;;;6.57;0.47;;;4.80;99.90;;;;;;5028702;28;20141;-81
2022/02/21 06:30:23;;;;;;;21.70;1.30;;;4.80;99.90;;;;;;5028545;28;20037;-80
2022/02/21 06:32:48;;;;;;;14.52;1.00;;;4.80;99.90;;;;;;5027490;28;20530;-81
2022/02/21 06:35:14;;;;;;;11.90;1.33;;;4.80;99.90;;;;;;5029012;28;20071;-80
2022/02/21 06:37:46;;;;;;;12.75;1.67;;;4.80;99.90;;;;;;5029727;28;20506;-81
2022/02/21 06:40:13;;;;;;;8.95;1.02;;;4.80;99.90;;;;;;5030056;28;20018;-80
2022/02/21 06:42:39;;;;;;;9.90;1.02;;;4.90;99.90;;;;;;5027232;28;20183;-79
2022/02/21 06:45:06;;;;;;;12.13;1.75;;;4.80;99.90;;;;;;5027444;28;20108;-80
2022/02/21 06:47:31;;;;;;;16.30;1.27;;;4.90;99.90;;;;;;5011333;28;20033;-80
2022/02/21 06:49:57;;;;;;;19.17;1.10;;;4.80;99.90;;;;;;5023042;28;20037;-81
2022/02/21 06:52:23;;;;;;;11.18;0.88;;;4.80;99.90;;;;;;5025245;28;20108;-82
2022/02/21 06:54:52;;;;;;;12.70;0.80;;;4.80;99.90;;;;;;5027203;28;20032;-82
2022/02/21 06:57:19;;;;;;;14.40;1.00;;;4.80;99.90;;;;;;5026231;28;20033;-82
2022/02/21 06:59:45;;;;;;;16.17;1.13;;;4.90;99.90;;;;;;5027068;28;20030;-83
2022/02/21 07:02:10;;;;;;;14.90;0.90;;;4.90;99.90;;;;;;5011391;28;20034;-84
2022/02/21 07:04:36;;;;;;;12.73;1.10;;;4.90;99.90;;;;;;5014718;28;20018;-83
2022/02/21 07:07:01;;;;;;;15.63;1.40;;;4.90;99.90;;;;;;5031954;28;20083;-84
2022/02/21 07:09:27;;;;;;;9.20;1.08;;;4.90;99.90;;;;;;5026739;28;20035;-83
2022/02/21 07:11:52;;;;;;;12.70;1.00;;;4.90;99.90;;;;;;5008680;28;20061;-83
2022/02/21 07:14:18;;;;;;;10.60;0.73;;;4.90;99.90;;;;;;5016649;28;20120;-84
2022/02/21 07:16:43;;;;;;;12.02;1.60;;;4.90;99.90;;;;;;5035043;28;20072;-85
2022/02/21 07:19:09;;;;;;;15.10;1.40;;;4.90;99.90;;;;;;5033870;28;20091;-85
2022/02/21 07:21:35;;;;;;;9.27;0.77;;;4.90;99.90;;;;;;5033726;28;20018;-84
2022/02/21 07:24:00;;;;;;;17.52;1.55;;;5.00;99.90;;;;;;5030949;28;20505;-85
2022/02/21 07:26:26;;;;;;;16.75;0.88;;;5.00;99.90;;;;;;5031226;28;20029;-86
2022/02/21 07:28:51;;;;;;;12.45;1.15;;;5.00;99.90;;;;;;5032993;28;20531;-84
2022/02/21 07:31:18;;;;;;;10.10;0.77;;;5.00;99.90;;;;;;5034234;28;20029;-86
2022/02/21 07:33:44;;;;;;;15.07;0.90;;;5.00;99.90;;;;;;5033686;28;20473;-85
2022/02/21 07:36:09;;;;;;;14.95;1.30;;;5.10;99.90;;;;;;5026993;28;20029;-84
2022/02/21 07:38:35;;;;;;;9.30;1.00;;;5.10;99.90;;;;;;5027150;28;20481;-84
2022/02/21 07:41:01;;;;;;;13.38;0.65;;;5.10;99.90;;;;;;5031266;28;20405;-82
2022/02/21 07:43:27;;;;;;;15.05;2.42;;;5.20;99.90;;;;;;5008916;28;20025;-83
2022/02/21 07:45:53;;;;;;;12.27;1.48;;;5.20;99.90;;;;;;5016086;28;20087;-83
2022/02/21 07:48:19;;;;;;;13.90;1.73;;;5.20;99.90;;;;;;5015921;28;20037;-84
2022/02/21 07:50:44;;;;;;;11.95;1.10;;;5.20;99.90;;;;;;5033351;28;20087;-88
2022/02/21 07:53:10;;;;;;;11.73;2.10;;;5.20;99.90;;;;;;5035221;28;20033;-85
2022/02/21 07:55:36;;;;;;;9.65;0.75;;;5.30;99.90;;;;;;5054450;28;20029;-88
2022/02/21 07:58:02;;;;;;;16.92;1.80;;;5.40;99.90;;;;;;5038001;28;20030;-85
2022/02/21 08:00:28;;;;;;;10.60;0.70;;;5.50;99.90;;;;;;5031621;28;20481;-86
2022/02/21 08:02:54;;;;;;;10.25;0.90;;;5.50;99.90;;;;;;5032295;28;20080;-85
2022/02/21 08:05:20;;;;;;;9.30;1.48;;;5.50;99.90;;;;;;5003472;28;20657;-84
2022/02/21 08:07:45;;;;;;;12.07;0.93;;;5.60;99.90;;;;;;5029387;28;20465;-85
2022/02/21 08:10:13;;;;;;;12.60;1.23;;;5.60;99.90;;;;;;5032186;28;20097;-85
2022/02/21 08:12:39;;;;;;;10.90;0.75;;;5.70;99.90;;;;;;5032754;28;20026;-87
2022/02/21 08:15:05;;;;;;;9.23;0.93;;;5.70;99.90;;;;;;5034129;28;20389;-85
2022/02/21 08:17:57;;;;;;;9.35;1.13;;;5.70;99.90;;;;;;5032643;28;20069;-85
2022/02/21 08:20:24;;;;;;;10.35;1.13;;;5.70;99.90;;;;;;4990666;28;1148229;-84
2022/02/21 08:22:52;;;;;;;8.35;0.98;;;5.70;99.90;;;;;;5034397;28;20029;-85
2022/02/21 08:25:18;;;;;;;5.97;0.68;;;5.70;99.90;;;;;;5016997;28;20039;-87
2022/02/21 08:27:45;;;;;;;13.85;1.70;;;5.70;99.90;;;;;;5034149;28;20036;-84
2022/02/21 08:30:19;;;;;;;8.40;1.13;;;5.80;99.90;;;;;;5034265;28;20066;-86
2022/02/21 08:32:45;;;;;;;11.82;0.93;;;5.80;99.90;;;;;;5032680;28;20104;-88
2022/02/21 08:35:12;;;;;;;11.55;1.35;;;5.80;99.90;;;;;;5041401;28;20119;-87
2022/02/21 08:37:41;;;;;;;10.18;0.70;;;5.90;99.90;;;;;;5022458;28;20036;-88
2022/02/21 08:40:10;;;;;;;9.95;1.35;;;6.00;99.90;;;;;;5031734;28;20377;-87
2022/02/21 08:42:37;;;;;;;8.57;0.70;;;6.00;99.90;;;;;;5033754;28;20053;-88
2022/02/21 08:45:07;;;;;;;11.93;1.40;;;6.10;99.90;;;;;;5034724;28;20408;-87
2022/02/21 08:47:33;;;;;;;11.18;1.27;;;6.10;99.90;;;;;;5035105;28;20022;-89
2022/02/21 08:49:58;;;;;;;12.15;0.77;;;6.00;99.90;;;;;;5033355;28;20021;-88
2022/02/21 08:52:24;;;;;;;13.45;1.02;;;6.00;99.90;;;;;;5034902;28;20083;-89
2022/02/21 08:54:49;;;;;;;8.82;0.52;;;5.90;99.90;;;;;;5031474;28;20018;-88
2022/02/21 08:57:16;;;;;;;8.57;1.05;;;5.80;99.90;;;;;;5031020;28;20033;-89
2022/02/21 08:59:43;;;;;;;12.38;0.98;;;5.70;99.90;;;;;;5030869;28;20482;-88
2022/02/21 09:02:08;;;;;;;10.48;0.95;;;5.60;99.90;;;;;;5023094;28;20481;-89
2022/02/21 09:04:34;;;;;;;5.90;0.60;;;5.60;99.90;;;;;;5029802;28;20105;-89
2022/02/21 09:06:59;;;;;;;10.52;1.15;;;5.50;99.90;;;;;;5034805;28;20046;-91
2022/02/21 09:09:25;;;;;;;14.57;1.20;;;5.40;99.90;;;;;;5029361;28;20179;-90
2022/02/21 09:11:51;;;;;;;12.05;0.93;;;5.40;99.90;;;;;;5033137;28;20045;-89
2022/02/21 09:14:17;;;;;;;10.25;0.90;;;5.30;99.90;;;;;;5030387;28;20022;-87
2022/02/21 09:16:43;;;;;;;10.45;1.05;;;5.30;99.90;;;;;;5031464;28;20109;-88
2022/02/21 09:19:09;;;;;;;8.32;0.73;;;5.20;99.90;;;;;;5036404;28;20597;-87
2022/02/21 09:21:34;;;;;;;11.95;1.15;;;5.10;99.90;;;;;;5025420;28;20029;-91
2022/02/21 09:24:00;;;;;;;10.07;0.70;;;5.10;99.90;;;;;;5034912;28;20033;-87
2022/02/21 09:26:27;;;;;;;14.52;2.47;;;5.00;99.90;;;;;;5016053;28;20112;-91
2022/02/21 09:28:53;;;;;;;11.82;0.95;;;4.90;99.90;;;;;;5015781;28;20056;-86
2022/02/21 09:31:19;;;;;;;12.80;1.10;;;4.80;99.90;;;;;;5016144;28;20131;-89
2022/02/21 09:33:44;;;;;;;8.02;0.73;;;4.70;99.90;;;;;;5007545;28;20084;-89
2022/02/21 09:36:10;;;;;;;8.52;1.02;;;4.60;99.90;;;;;;5020538;28;20040;-89
2022/02/21 09:38:35;;;;;;;7.65;0.70;;;4.60;99.90;;;;;;5016225;28;20041;-90
2022/02/21 09:41:04;;;;;;;19.27;1.05;;;4.60;99.90;;;;;;5033472;28;20128;-90
2022/02/21 09:43:31;;;;;;;6.57;0.80;;;4.60;99.90;;;;;;5020977;28;20033;-91
2022/02/21 09:46:03;;;;;;;14.82;1.27;;;4.50;99.90;;;;;;5039420;28;20103;-91
2022/02/21 09:48:29;;;;;;;7.85;0.70;;;4.50;99.90;;;;;;5025152;28;20397;-91
2022/02/21 09:50:59;;;;;;;10.65;0.85;;;4.50;99.90;;;;;;5035704;28;20037;-91
2022/02/21 09:53:26;;;;;;;8.80;0.75;;;4.40;99.90;;;;;;5020963;28;20091;-91
2022/02/21 09:55:52;;;;;;;14.48;1.45;;;4.40;99.90;;;;;;5036093;28;20450;-91
2022/02/21 09:58:17;;;;;;;7.70;1.00;;;4.40;99.90;;;;;;5040161;28;20089;-90
2022/02/21 10:00:43;;;;;;;15.23;1.65;;;4.40;99.90;;;;;;5015552;28;20040;-92
2022/02/21 10:03:08;;;;;;;14.05;1.10;;;4.40;99.90;;;;;;5033359;28;20112;-89
2022/02/21 10:05:34;;;;;;;9.68;1.13;;;4.50;99.90;;;;;;5040960;28;20112;-91
2022/02/21 10:08:07;;;;;;;12.15;2.25;;;4.50;99.90;;;;;;5022185;28;20071;-91
2022/02/21 10:10:35;;;;;;;13.10;1.88;;;4.50;99.90;;;;;;5039419;28;20034;-91
2022/02/21 10:13:02;;;;;;;14.48;1.48;;;4.50;99.90;;;;;;5034122;28;20040;-89
2022/02/21 10:15:30;;;;;;;17.52;2.63;;;4.50;99.90;;;;;;5017170;28;20024;-92
2022/02/21 10:18:09;;;;;;;16.75;1.85;;;4.50;99.90;;;;;;5033686;28;20033;-91
2022/02/21 10:20:51;;;;;;;13.00;1.65;;;4.60;99.90;;;;;;5034428;28;20111;-93
2022/02/21 10:23:16;;;;;;;17.48;1.63;;;4.60;99.90;;;;;;5038054;28;20096;-91
2022/02/21 10:26:00;;;;;;;19.25;2.63;;;4.60;99.90;;;;;;5035902;28;20064;-91
2022/02/21 10:28:27;;;;;;;12.35;1.33;;;4.60;99.90;;;;;;5015920;28;20040;-92
2022/02/21 10:31:16;;;;;;;15.13;1.25;;;4.60;99.90;;;;;;5033544;28;20029;-93
2022/02/21 10:34:06;;;;;;;12.57;1.17;;;4.70;99.90;;;;;;5039473;28;20581;-93
2022/02/21 10:36:38;;;;;;;10.60;0.70;;;4.60;99.90;;;;;;5037695;28;20049;-93
2022/02/21 10:39:13;;;;;;;13.38;1.13;;;4.60;99.90;;;;;;5034473;28;20025;-90
2022/02/21 10:41:49;;;;;;;12.43;1.52;;;4.60;99.90;;;;;;5030166;28;20037;-92
2022/02/21 10:44:23;;;;;;;18.17;2.17;;;4.50;99.90;;;;;;5030884;28;20096;-93
2022/02/21 10:47:21;;;;;;;16.27;1.77;;;4.50;99.90;;;;;;5037725;28;20104;-92
2022/02/21 10:49:49;;;;;;;10.73;1.40;;;4.40;99.90;;;;;;5038245;28;20029;-92
2022/02/21 10:52:20;;;;;;;9.30;0.80;;;4.40;99.90;;;;;;5035311;28;20036;-92
2022/02/21 10:54:47;;;;;;;12.38;1.50;;;4.40;99.90;;;;;;5024718;28;20111;-93
2022/02/21 10:57:17;;;;;;;13.93;0.80;;;4.50;99.90;;;;;;5036875;28;20083;-92
2022/02/21 10:59:43;;;;;;;7.00;0.75;;;4.50;99.90;;;;;;5034036;28;20021;-94
2022/02/21 11:02:14;;;;;;;9.30;0.85;;;4.50;99.90;;;;;;5037818;28;20064;-89
2022/02/21 11:04:41;;;;;;;10.00;1.27;;;4.50;99.90;;;;;;5020275;28;20030;-90
2022/02/21 11:07:07;;;;;;;13.73;1.20;;;4.60;99.90;;;;;;5029102;28;20523;-94
2022/02/21 11:09:34;;;;;;;12.30;1.48;;;4.60;99.90;;;;;;5030763;28;20029;-91
2022/02/21 11:12:02;;;;;;;12.38;1.23;;;4.60;99.90;;;;;;5030364;28;20021;-92
2022/02/21 11:14:29;;;;;;;8.57;0.93;;;4.60;99.90;;;;;;5032602;28;20021;-92
2022/02/21 11:17:01;;;;;;;16.80;1.80;;;4.60;99.90;;;;;;5037507;28;20025;-91
2022/02/21 11:19:26;;;;;;;11.77;0.93;;;4.70;99.90;;;;;;5020406;28;20038;-93
2022/02/21 11:21:53;;;;;;;13.02;1.52;;;4.70;99.90;;;;;;5031195;28;20052;-91
2022/02/21 11:24:21;;;;;;;16.08;0.93;;;4.80;99.90;;;;;;5027712;28;20013;-90
2022/02/21 11:27:09;;;;;;;15.10;2.40;;;4.90;99.90;;;;;;5029219;28;20029;-90
2022/02/21 11:29:43;;;;;;;6.43;0.80;;;5.00;99.90;;;;;;5022429;28;20087;-93
2022/02/21 11:32:19;;;;;;;14.55;1.27;;;5.10;99.90;;;;;;5023887;28;20026;-91
2022/02/21 11:34:46;;;;;;;17.92;2.63;;;5.20;99.90;;;;;;5014101;28;20486;-91
2022/02/21 11:37:26;;;;;;;20.73;2.15;;;5.30;99.90;;;;;;5023810;28;20034;-91
2022/02/21 11:39:58;;;;;;;15.07;1.85;;;5.30;99.90;;;;;;5016661;28;20025;-92
2022/02/21 11:42:30;;;;;;;19.42;3.75;;;5.40;99.90;;;;;;5035315;28;20095;-89
2022/02/21 11:44:58;;;;;;;19.05;2.17;;;5.40;99.90;;;;;;5032137;28;20458;-93
2022/02/21 11:47:40;;;;;;;23.02;2.00;;;5.40;99.90;;;;;;5035104;28;20029;-90
2022/02/21 11:50:17;;;;;;;28.33;3.20;;;5.40;99.90;;;;;;5033253;28;20029;-91
2022/02/21 11:52:48;;;;;;;30.42;2.80;;;5.40;99.90;;;;;;5034206;28;20084;-91
2022/02/21 11:55:29;;;;;;;31.05;2.20;;;5.50;99.90;;;;;;5036206;28;20033;-91
2022/02/21 11:57:55;;;;;;;26.38;3.28;;;5.60;99.90;;;;;;5034071;28;20037;-91
2022/02/21 12:00:38;;;;;;;32.35;2.70;;;5.60;99.90;;;;;;5034617;28;20041;-91
2022/02/21 12:03:17;;;;;;;29.58;3.42;;;5.70;99.90;;;;;;5030983;28;20037;-91
2022/02/21 12:05:44;;;;;;;32.20;3.60;;;5.70;99.90;;;;;;4998704;28;20084;-92
2022/02/21 12:08:39;;;;;;;30.48;3.45;;;5.80;99.90;;;;;;5034529;28;20033;-92
2022/02/21 12:11:07;;;;;;;29.60;3.50;;;5.90;99.90;;;;;;5030923;28;20470;-87
2022/02/21 12:13:57;;;;;;;44.72;6.35;;;6.00;99.90;;;;;;5035429;28;20037;-92
2022/02/21 12:16:23;;;;;;;36.95;4.18;;;6.00;99.90;;;;;;5017449;28;20026;-90
2022/02/21 12:18:57;;;;;;;41.33;4.53;;;6.20;99.90;;;;;;5031147;28;20033;-86
2022/02/21 12:21:28;;;;;;;41.55;4.22;;;6.20;99.90;;;;;;5007892;28;20045;-86
2022/02/21 12:24:04;;;;;;;34.08;3.13;;;6.20;99.90;;;;;;5024000;28;20021;-85
2022/02/21 12:26:37;;;;;;;34.08;4.53;;;6.20;99.90;;;;;;5029714;28;20032;-88
2022/02/21 12:29:20;;;;;;;35.88;4.53;;;6.30;99.90;;;;;;5034176;28;20570;-86
2022/02/21 12:31:58;;;;;;;38.35;4.53;;;6.30;99.90;;;;;;5017141;28;20030;-84
2022/02/21 12:34:33;;;;;;;41.97;4.78;;;6.20;99.90;;;;;;5029932;28;20151;-83
2022/02/21 12:37:04;;;;;;;33.40;3.67;;;6.20;99.90;;;;;;5036524;28;20120;-85
2022/02/21 12:39:36;;;;;;;37.58;3.53;;;6.30;99.90;;;;;;5032811;28;20101;-83
2022/02/21 12:42:02;;;;;;;39.50;4.15;;;6.30;99.90;;;;;;5032960;28;20033;-84
2022/02/21 12:44:28;;;;;;;28.63;3.38;;;6.30;99.90;;;;;;5027958;28;20029;-82
2022/02/21 12:46:57;;;;;;;22.45;2.60;;;6.40;99.90;;;;;;5032580;28;20104;-82
2022/02/21 12:49:32;;;;;;;22.35;2.08;;;6.50;99.90;;;;;;5035571;28;20065;-83